Home   Weather   USA   Kansas City   Past weeks
Flag for USA

Past Weather in Kansas City, Missouri, USA — January 2013

Currently: 51 °F. Overcast. (Weather station: Kansas City Downtown Airport, USA). See more current weather

January 2013 Weather in Kansas City — Graph

°F

High & Low Weather Summary for January 2013

 TemperatureHumidityPressure
High76 °F (Jan 28, 1:54 pm)100% (Jan 10, 9:03 pm)30.56 "Hg (Jan 10, 9:03 pm)
Low10 °F (Jan 24, 7:54 am)25% (Jan 19, 3:54 pm)29.48 "Hg (Jan 29, 2:54 pm)
Average35 °F61%30.16 "Hg
* Reported Jan 1 12:54 am — Jan 31 4:54 pm, Kansas City. Weather by CustomWeather, © 2024

Note: Actual official high and low records may vary slightly from our data, if they occured in-between our weather recording intervals... More about our weather records

Kansas City Weather History for January 1, 2013

Scroll right to see more
 ConditionsComfort  
Time TempWeatherWind HumidityBarometerVisibility
12:54 am
Tue, Jan 1
23 °FMostly cloudy.7 mph78%30.21 "Hg10 mi
1:54 am22 °FOvercast.9 mph82%30.23 "Hg10 mi
2:54 am21 °FMostly cloudy.9 mph74%30.25 "Hg10 mi
3:54 am20 °FOvercast.9 mph71%30.24 "Hg10 mi
4:54 am18 °FClear.8 mph71%30.24 "Hg10 mi
5:54 am16 °FClear.No wind74%30.26 "Hg10 mi
6:54 am15 °FClear.5 mph74%30.29 "Hg10 mi
7:54 am14 °FSunny.3 mph73%30.33 "Hg10 mi
8:54 am17 °FOvercast.3 mph68%30.34 "Hg10 mi
9:54 am18 °FPartly sunny.6 mph62%30.34 "Hg10 mi
10:54 am20 °FPassing clouds.No wind60%30.35 "Hg10 mi
11:54 am22 °FOvercast.No wind55%30.32 "Hg10 mi
12:54 pm23 °FMore clouds than sun.6 mph57%30.31 "Hg10 mi
1:54 pm22 °FPartly sunny.6 mph57%30.31 "Hg10 mi
2:54 pm23 °FOvercast.3 mph55%30.31 "Hg10 mi
3:54 pm25 °FPassing clouds.No wind44%30.30 "Hg10 mi
4:54 pm23 °FSunny.3 mph50%30.29 "Hg10 mi
5:54 pm22 °FClear.No wind55%30.30 "Hg10 mi
6:54 pm22 °FClear.No wind52%30.29 "Hg10 mi
7:54 pm20 °FClear.3 mph60%30.30 "Hg10 mi
8:54 pm19 °FClear.3 mph65%30.30 "Hg10 mi
9:54 pm18 °FClear.3 mph68%30.29 "Hg10 mi
10:54 pm18 °FClear.No wind71%30.28 "Hg10 mi
11:54 pm16 °FClear.3 mph77%30.29 "Hg8 mi
Weather by CustomWeather, © 2024

See weather overview